Time;durP1;ratioP1;P1;durP2;ratioP2;P2;SDS_P1;SDS_P2;PMS_P1;PMS_P2;Temp;Humidity;BMP_temperature;BMP_pressure;BME280_temperature;BME280_humidity;BME280_pressure;Samples;Min_cycle;Max_cycle;Signal;HPM_P1;HPM_P2
2023/04/08 00:00:12;;;;;;;34.80;26.00;;;;;;;6.02;49.47;93897.72;5001060;28;20026;-76
2023/04/08 00:02:38;;;;;;;36.28;27.55;;;;;;;6.16;49.39;93893.34;5004309;28;20048;-75
2023/04/08 00:05:05;;;;;;;38.03;27.00;;;;;;;6.02;49.21;93877.34;5003420;28;20037;-76
2023/04/08 00:07:30;;;;;;;36.30;26.63;;;;;;;5.84;49.83;93883.38;5005803;28;20483;-76
2023/04/08 00:09:56;;;;;;;35.55;26.60;;;;;;;5.86;49.84;93900.53;5001821;28;20050;-75
2023/04/08 00:12:21;;;;;;;35.65;26.77;;;;;;;5.71;50.33;93892.78;5011129;28;20049;-76
2023/04/08 00:14:46;;;;;;;36.17;25.85;;;;;;;5.88;50.11;93903.66;5005862;28;20248;-77
2023/04/08 00:17:12;;;;;;;34.58;27.00;;;;;;;5.89;49.93;93899.16;5006818;28;20459;-76
2023/04/08 00:19:37;;;;;;;31.25;24.92;;;;;;;5.88;49.55;93876.47;5006474;28;20064;-77
2023/04/08 00:22:03;;;;;;;37.13;27.55;;;;;;;5.77;49.96;93878.47;4999110;28;20068;-76
2023/04/08 00:24:28;;;;;;;32.88;25.30;;;;;;;5.64;50.10;93876.47;4997359;28;20065;-76
2023/04/08 00:26:53;;;;;;;39.40;24.20;;;;;;;5.78;50.00;93885.28;5006899;28;20175;-77
2023/04/08 00:29:19;;;;;;;28.40;21.10;;;;;;;5.99;48.92;93889.28;5002105;28;20048;-75
2023/04/08 00:31:44;;;;;;;29.30;21.20;;;;;;;5.85;48.98;93880.47;5006712;28;20025;-77
2023/04/08 00:34:10;;;;;;;29.40;23.65;;;;;;;5.91;49.05;93897.81;5007427;28;20025;-76
2023/04/08 00:36:35;;;;;;;34.53;23.13;;;;;;;5.77;49.47;93881.09;5011378;28;20087;-77
2023/04/08 00:39:03;;;;;;;32.40;25.08;;;;;;;5.90;49.73;93900.75;5006094;28;20536;-76
2023/04/08 00:41:28;;;;;;;32.35;25.00;;;;;;;5.84;49.38;93894.72;5006295;28;20038;-77
2023/04/08 00:43:54;;;;;;;36.35;25.90;;;;;;;5.90;49.09;93909.44;5005162;28;20072;-76
2023/04/08 00:46:20;;;;;;;34.78;25.38;;;;;;;5.87;49.11;93902.06;5005980;28;20510;-77
2023/04/08 00:48:46;;;;;;;34.15;25.52;;;;;;;5.73;49.48;93889.81;5005957;28;20056;-76
2023/04/08 00:51:12;;;;;;;35.72;24.90;;;;;;;5.64;49.67;93876.47;5007400;28;20528;-76
2023/04/08 00:53:37;;;;;;;31.10;23.27;;;;;;;5.81;49.77;93905.84;5005081;28;20515;-76
2023/04/08 00:56:03;;;;;;;38.50;24.23;;;;;;;5.80;50.20;93909.56;5006945;28;20122;-76
2023/04/08 00:58:29;;;;;;;33.30;23.95;;;;;;;5.68;49.81;93877.47;5006550;28;20931;-76
2023/04/08 01:01:19;;;;;;;31.75;24.58;;;;;;;5.78;49.96;93893.19;5007346;28;20539;-75
2023/04/08 01:03:56;;;;;;;29.55;23.00;;;;;;;5.67;50.29;93885.69;5005930;28;20038;-77
2023/04/08 01:06:41;;;;;;;28.77;22.45;;;;;;;5.71;50.70;93892.78;5004107;28;20618;-76
2023/04/08 01:09:09;;;;;;;32.50;23.58;;;;;;;5.82;50.83;93912.69;5006183;28;20133;-75
2023/04/08 01:11:37;;;;;;;35.42;25.25;;;;;;;5.89;50.33;93918.44;5000112;28;20638;-75
2023/04/08 01:14:06;;;;;;;33.65;25.20;;;;;;;5.87;50.14;93912.63;4987914;28;20057;-76
2023/04/08 01:16:33;;;;;;;30.60;22.15;;;;;;;5.94;49.87;93909.66;4985781;28;20293;-76
2023/04/08 01:19:00;;;;;;;32.22;24.23;;;;;;;5.91;50.06;93915.50;4987039;28;20392;-75
2023/04/08 01:21:27;;;;;;;32.65;24.02;;;;;;;5.92;50.09;93909.19;4985659;28;20272;-75
2023/04/08 01:24:12;;;;;;;32.35;23.98;;;;;;;5.85;50.36;93900.78;4986275;28;20218;-77
2023/04/08 01:26:39;;;;;;;28.25;23.23;;;;;;;5.85;50.29;93898.16;4983379;28;20049;-75
2023/04/08 01:29:05;;;;;;;35.58;25.10;;;;;;;5.81;50.19;93897.94;4985483;28;20462;-75
2023/04/08 01:31:31;;;;;;;35.33;26.27;;;;;;;5.82;50.11;93904.75;4987402;28;20034;-76
2023/04/08 01:34:00;;;;;;;32.88;24.48;;;;;;;5.88;50.72;93914.22;4985612;28;20394;-75
2023/04/08 01:36:27;;;;;;;34.70;25.95;;;;;;;5.87;49.95;93896.03;4986840;28;20103;-75
2023/04/08 01:38:53;;;;;;;30.67;24.67;;;;;;;5.97;49.97;93907.25;4985404;28;20050;-76
2023/04/08 01:41:20;;;;;;;34.92;25.33;;;;;;;5.88;50.05;93903.66;4987312;28;20049;-76
2023/04/08 01:43:46;;;;;;;35.35;25.33;;;;;;;5.96;50.39;93918.88;4984245;28;20421;-75
2023/04/08 01:46:12;;;;;;;34.67;24.40;;;;;;;5.98;50.38;93913.31;4986956;28;20091;-75
2023/04/08 01:48:39;;;;;;;33.03;25.15;;;;;;;5.92;50.56;93894.09;4980188;28;20069;-75
2023/04/08 01:51:05;;;;;;;35.28;24.80;;;;;;;6.04;50.36;93912.19;4985869;28;20036;-76
2023/04/08 01:53:31;;;;;;;31.58;22.52;;;;;;;6.02;50.30;93880.00;4987983;28;20345;-75
2023/04/08 01:56:05;;;;;;;32.55;25.45;;;;;;;6.19;49.84;93904.13;4984273;28;20092;-75
2023/04/08 01:58:36;;;;;;;31.75;22.92;;;;;;;6.14;50.21;93914.72;4980647;28;20034;-75
2023/04/08 02:01:02;;;;;;;31.48;23.60;;;;;;;6.14;50.14;93916.56;4999426;28;20061;-76
2023/04/08 02:03:29;;;;;;;29.92;22.60;;;;;;;6.11;50.08;93922.41;5004979;28;20265;-76
2023/04/08 02:05:55;;;;;;;36.88;24.95;;;;;;;6.11;49.90;93915.28;5005154;28;20112;-75
2023/04/08 02:08:20;;;;;;;35.10;24.55;;;;;;;6.29;49.60;93929.63;5006591;28;20891;-76
2023/04/08 02:10:46;;;;;;;33.10;23.23;;;;;;;6.28;49.76;93931.47;5006473;28;20037;-76
2023/04/08 02:13:11;;;;;;;34.35;25.20;;;;;;;6.13;50.14;93928.19;5005464;28;20018;-76
2023/04/08 02:15:46;;;;;;;38.30;27.17;;;;;;;5.88;50.34;93922.13;5007767;28;20025;-76
2023/04/08 02:18:21;;;;;;;39.92;28.42;;;;;;;5.92;49.80;93936.34;5004585;28;20476;-75
2023/04/08 02:20:54;;;;;;;39.28;27.42;;;;;;;5.86;50.27;93932.19;5007479;28;20165;-76
2023/04/08 02:23:23;;;;;;;37.78;26.88;;;;;;;5.82;50.07;93920.59;5013622;28;20147;-76
2023/04/08 02:25:49;;;;;;;37.58;26.83;;;;;;;5.91;51.03;93945.34;5004451;28;20139;-75
2023/04/08 02:28:17;;;;;;;35.92;26.30;;;;;;;5.83;50.92;93942.50;5007606;28;20026;-77
2023/04/08 02:30:47;;;;;;;34.72;25.38;;;;;;;6.00;50.55;93937.59;5005562;28;20501;-76
2023/04/08 02:33:14;;;;;;;34.97;27.90;;;;;;;5.98;50.26;93932.56;5004899;28;20072;-75
2023/04/08 02:35:40;;;;;;;34.55;27.92;;;;;;;5.83;50.54;93927.47;5003632;28;20058;-75
2023/04/08 02:38:06;;;;;;;39.72;28.55;;;;;;;5.90;51.02;93938.47;5003481;28;20501;-75
2023/04/08 02:40:32;;;;;;;40.90;27.23;;;;;;;5.99;50.13;93934.16;5003250;28;20096;-76
2023/04/08 02:42:59;;;;;;;42.97;28.45;;;;;;;6.06;50.38;93940.97;5006532;28;20029;-77
2023/04/08 02:45:28;;;;;;;37.72;27.67;;;;;;;5.76;50.72;93910.41;5005208;28;20028;-76
2023/04/08 02:47:54;;;;;;;40.35;29.48;;;;;;;5.96;50.74;93932.09;5004181;28;20112;-75
2023/04/08 02:50:19;;;;;;;37.90;27.50;;;;;;;6.05;50.59;93934.88;5006378;28;20508;-76
2023/04/08 02:52:45;;;;;;;37.15;27.35;;;;;;;6.02;50.62;93940.72;5004692;28;20029;-77
2023/04/08 02:55:10;;;;;;;42.13;28.13;;;;;;;5.99;50.81;93925.44;5004496;28;20115;-76
2023/04/08 02:57:38;;;;;;;37.95;28.50;;;;;;;5.83;51.00;93895.78;5012963;28;20508;-75
2023/04/08 03:00:04;;;;;;;40.13;28.02;;;;;;;5.99;51.13;93906.97;5007039;28;20103;-75
2023/04/08 03:02:30;;;;;;;40.95;27.17;;;;;;;6.13;50.97;93938.75;5004520;28;20045;-75
2023/04/08 03:04:55;;;;;;;40.03;26.55;;;;;;;5.90;51.99;93929.78;5003950;28;20053;-75
2023/04/08 03:07:21;;;;;;;37.28;28.02;;;;;;;5.79;51.78;93909.81;5005622;28;20048;-76
2023/04/08 03:09:46;;;;;;;37.90;27.95;;;;;;;5.64;51.69;93913.41;5005221;28;20071;-75
2023/04/08 03:12:12;;;;;;;38.83;30.20;;;;;;;5.66;51.59;93931.59;5004894;28;20080;-76
2023/04/08 03:14:37;;;;;;;37.63;27.70;;;;;;;5.88;51.47;93945.88;5003578;28;20041;-75
2023/04/08 03:17:02;;;;;;;32.88;28.40;;;;;;;6.11;51.06;93943.53;5006020;28;20507;-76
2023/04/08 03:19:28;;;;;;;42.40;28.27;;;;;;;5.91;51.38;93923.44;5002989;28;20029;-76
2023/04/08 03:21:53;;;;;;;40.85;28.83;;;;;;;5.84;51.59;93921.13;5005430;28;20033;-75
2023/04/08 03:24:18;;;;;;;41.63;30.00;;;;;;;5.74;51.77;93908.03;5003647;28;20033;-75
2023/04/08 03:26:44;;;;;;;38.63;28.40;;;;;;;5.98;51.52;93935.22;5004584;28;20626;-75
2023/04/08 03:29:09;;;;;;;41.13;29.40;;;;;;;5.85;51.30;93933.25;5003631;28;20041;-75
2023/04/08 03:31:35;;;;;;;41.92;29.70;;;;;;;5.85;51.57;93935.09;5007066;28;20045;-77
2023/04/08 03:34:00;;;;;;;39.85;29.98;;;;;;;5.78;51.50;93930.16;5004482;28;20040;-75
2023/04/08 03:36:26;;;;;;;41.25;30.73;;;;;;;5.80;51.83;93943.06;5008206;28;20029;-77
2023/04/08 03:38:51;;;;;;;38.42;29.80;;;;;;;5.70;52.41;93916.78;5004227;28;20049;-74
2023/04/08 03:41:17;;;;;;;44.42;32.67;;;;;;;5.84;51.95;93934.31;5005331;28;20049;-76
2023/04/08 03:43:42;;;;;;;50.70;36.15;;;;;;;5.88;51.83;93945.88;5004600;28;20072;-77
2023/04/08 03:46:08;;;;;;;50.75;36.65;;;;;;;5.93;52.16;93948.47;5005015;28;20071;-76
2023/04/08 03:48:33;;;;;;;45.83;33.08;;;;;;;6.02;51.50;93939.94;5005137;28;20623;-77
2023/04/08 03:50:59;;;;;;;44.75;32.70;;;;;;;5.99;51.24;93942.06;5009043;28;20038;-76
2023/04/08 03:53:26;;;;;;;52.63;35.55;;;;;;;6.02;51.26;93923.03;5007502;28;20422;-76
2023/04/08 03:55:52;;;;;;;41.70;30.35;;;;;;;6.08;50.95;93936.16;5008059;28;20598;-76
2023/04/08 03:58:18;;;;;;;40.30;31.48;;;;;;;6.04;51.39;93935.16;5007996;28;20053;-76
2023/04/08 04:00:43;;;;;;;40.85;30.88;;;;;;;5.98;51.70;93934.44;5010483;28;20116;-76
2023/04/08 04:03:11;;;;;;;42.80;28.83;;;;;;;5.84;52.02;93934.31;5008618;28;20515;-76
2023/04/08 04:05:37;;;;;;;37.90;30.20;;;;;;;5.70;52.12;93933.41;5009728;28;20037;-76
2023/04/08 04:08:03;;;;;;;38.75;29.83;;;;;;;5.92;51.47;93938.22;5008906;28;20029;-76
2023/04/08 04:10:28;;;;;;;43.15;30.83;;;;;;;5.80;51.30;93900.84;5017282;28;20044;-75
2023/04/08 04:12:53;;;;;;;43.05;29.40;;;;;;;6.00;51.21;93916.47;5006694;28;20065;-76
2023/04/08 04:15:19;;;;;;;39.13;29.38;;;;;;;6.08;51.01;93933.53;5010687;28;20072;-75
2023/04/08 04:17:47;;;;;;;38.28;29.02;;;;;;;5.86;51.54;93912.94;5004824;28;20124;-76
2023/04/08 04:20:14;;;;;;;38.20;29.48;;;;;;;6.07;51.50;93945.19;5008002;28;20041;-76
2023/04/08 04:22:39;;;;;;;38.72;26.92;;;;;;;5.88;51.85;93937.97;5007474;28;20154;-76
2023/04/08 04:25:05;;;;;;;34.50;26.83;;;;;;;5.77;51.92;93948.94;5008333;28;20025;-77
2023/04/08 04:27:30;;;;;;;39.70;29.55;;;;;;;5.71;52.22;93942.91;5010206;28;20091;-77
2023/04/08 04:29:56;;;;;;;34.63;26.27;;;;;;;5.73;52.32;93938.13;5005805;28;20416;-76
2023/04/08 04:32:21;;;;;;;43.95;29.90;;;;;;;5.74;52.32;93949.47;5007763;28;20060;-77
2023/04/08 04:34:47;;;;;;;35.00;27.15;;;;;;;5.70;53.00;93953.72;5008365;28;20043;-77
2023/04/08 04:37:12;;;;;;;31.58;25.25;;;;;;;5.66;52.41;93937.69;5007499;28;20025;-76
2023/04/08 04:39:38;;;;;;;43.00;28.52;;;;;;;5.68;52.03;93935.53;5010489;28;20032;-77
2023/04/08 04:42:03;;;;;;;37.78;29.00;;;;;;;5.75;52.20;93946.56;5006361;28;20087;-77
2023/04/08 04:44:29;;;;;;;35.67;28.63;;;;;;;5.74;52.69;93958.16;5016908;28;20041;-76
2023/04/08 04:46:54;;;;;;;41.65;29.70;;;;;;;5.69;52.86;93947.66;5007215;28;20488;-76
2023/04/08 04:49:20;;;;;;;42.95;27.67;;;;;;;5.67;52.78;93939.25;5008419;28;20492;-74
2023/04/08 04:51:46;;;;;;;42.50;30.42;;;;;;;5.50;52.29;93913.28;5006895;28;20057;-75
2023/04/08 04:54:11;;;;;;;42.72;29.83;;;;;;;5.82;52.91;93965.47;5011949;28;20063;-74
2023/04/08 04:56:36;;;;;;;46.33;30.83;;;;;;;5.61;52.04;93935.09;5004119;28;20111;-75
2023/04/08 04:59:04;;;;;;;40.67;29.60;;;;;;;5.85;52.42;93964.13;5005803;28;20261;-76
2023/04/08 05:01:29;;;;;;;38.42;28.40;;;;;;;5.87;52.79;93967.31;5007133;28;20041;-75
2023/04/08 05:03:55;;;;;;;47.47;31.65;;;;;;;5.77;52.56;93941.78;5008096;28;20029;-75
2023/04/08 05:06:22;;;;;;;43.60;30.58;;;;;;;6.05;51.46;93966.56;5007492;28;20030;-75
2023/04/08 05:08:47;;;;;;;44.63;30.25;;;;;;;6.05;51.34;93949.94;5007715;28;20046;-75
2023/04/08 05:11:13;;;;;;;41.67;29.77;;;;;;;5.93;51.32;93942.41;5007357;28;20522;-75
2023/04/08 05:13:38;;;;;;;41.90;27.90;;;;;;;6.02;51.45;93962.63;5006219;28;21359;-75
2023/04/08 05:16:04;;;;;;;37.30;28.55;;;;;;;6.13;50.46;93962.50;5007644;28;20026;-77
2023/04/08 05:18:29;;;;;;;36.60;26.58;;;;;;;5.80;50.08;93946.50;5007482;28;20431;-75
2023/04/08 05:20:55;;;;;;;34.05;25.45;;;;;;;5.95;49.79;93945.56;5006626;28;20141;-74
2023/04/08 05:23:20;;;;;;;39.78;26.88;;;;;;;6.00;49.47;93948.94;5008923;28;20546;-75
2023/04/08 05:25:45;;;;;;;35.47;25.85;;;;;;;6.06;49.70;93956.81;5006311;28;20516;-74
2023/04/08 05:28:11;;;;;;;38.50;28.40;;;;;;;5.55;50.33;93965.22;5006163;28;20036;-76
2023/04/08 05:30:36;;;;;;;34.63;28.08;;;;;;;5.82;50.42;93960.19;5007240;28;20531;-76
2023/04/08 05:33:02;;;;;;;39.90;28.35;;;;;;;5.91;50.40;93966.47;5008176;28;20079;-77
2023/04/08 05:35:28;;;;;;;40.85;26.08;;;;;;;5.92;50.22;93970.66;5011750;28;20060;-77
2023/04/08 05:37:53;;;;;;;37.10;23.77;;;;;;;5.14;50.93;93962.91;5006037;28;20041;-76
2023/04/08 05:40:19;;;;;;;28.92;21.38;;;;;;;5.06;50.63;93973.25;5005536;28;20504;-75
2023/04/08 05:42:44;;;;;;;36.83;23.77;;;;;;;5.37;50.54;93961.41;5008067;28;20017;-74
2023/04/08 05:45:10;;;;;;;28.48;22.33;;;;;;;5.11;50.83;93968.72;5007511;28;20041;-76
2023/04/08 05:47:35;;;;;;;33.95;24.52;;;;;;;5.21;51.64;93962.59;5006700;28;20042;-77
2023/04/08 05:50:00;;;;;;;33.45;24.55;;;;;;;5.12;51.30;93927.34;5006812;28;20407;-76
2023/04/08 05:52:26;;;;;;;33.90;23.98;;;;;;;5.35;50.58;93925.81;5006022;28;20065;-76
2023/04/08 05:54:51;;;;;;;33.75;23.80;;;;;;;5.34;51.12;93945.34;5006869;28;20029;-77
2023/04/08 05:57:17;;;;;;;34.45;22.92;;;;;;;5.62;50.62;93955.13;5006406;28;20396;-77
2023/04/08 05:59:42;;;;;;;30.20;22.50;;;;;;;5.50;51.01;93955.50;5007051;28;20030;-78
2023/04/08 06:02:07;;;;;;;31.90;22.67;;;;;;;5.52;51.16;93960.50;5005959;28;20404;-77
2023/04/08 06:04:33;;;;;;;33.35;22.90;;;;;;;5.86;50.56;93958.59;5005502;28;20056;-76
2023/04/08 06:06:59;;;;;;;31.45;23.33;;;;;;;5.33;51.42;93959.59;5005196;28;20033;-76
2023/04/08 06:09:25;;;;;;;33.75;23.52;;;;;;;5.48;51.06;93933.09;5007007;28;20049;-76
2023/04/08 06:11:51;;;;;;;27.67;20.65;;;;;;;5.35;51.13;93963.53;5006145;28;20436;-76
2023/04/08 06:14:16;;;;;;;31.83;22.55;;;;;;;4.64;52.68;93947.44;5005133;28;20098;-76
2023/04/08 06:16:42;;;;;;;30.15;22.48;;;;;;;4.99;52.68;93949.06;5005477;28;20044;-76
2023/04/08 06:19:07;;;;;;;32.88;21.20;;;;;;;5.16;52.40;93964.47;5005709;28;20089;-77
2023/04/08 06:21:33;;;;;;;41.17;22.45;;;;;;;5.36;51.61;93940.59;5007319;28;20540;-78
2023/04/08 06:23:58;;;;;;;31.95;22.42;;;;;;;5.76;51.21;93963.19;5012671;28;20034;-75
2023/04/08 06:26:23;;;;;;;36.92;22.40;;;;;;;5.43;52.14;93952.38;5005342;28;20091;-76
2023/04/08 06:28:49;;;;;;;34.80;21.48;;;;;;;5.17;52.97;93964.22;5003249;28;20046;-77
2023/04/08 06:31:14;;;;;;;31.75;23.52;;;;;;;4.68;54.20;93943.19;5007341;28;20026;-76
2023/04/08 06:33:40;;;;;;;32.60;23.75;;;;;;;4.98;54.13;93961.44;5005211;28;20040;-76
2023/04/08 06:36:06;;;;;;;32.15;22.98;;;;;;;4.84;54.37;93968.41;5006392;28;20053;-77
2023/04/08 06:38:32;;;;;;;33.63;24.27;;;;;;;4.69;54.49;93947.41;5008299;28;20403;-76
2023/04/08 06:41:05;;;;;;;31.00;23.83;;;;;;;4.45;54.87;93959.66;5003107;28;20036;-76
2023/04/08 06:43:35;;;;;;;39.85;24.60;;;;;;;4.66;54.93;93979.53;5002564;28;20033;-77
2023/04/08 06:46:00;;;;;;;38.33;23.20;;;;;;;4.77;54.03;93969.75;5013820;28;20453;-75
2023/04/08 06:48:29;;;;;;;36.22;22.33;;;;;;;4.55;55.02;93959.59;5005782;28;20032;-76
2023/04/08 06:50:59;;;;;;;32.55;23.52;;;;;;;4.33;55.53;93983.66;5006431;28;20037;-77
2023/04/08 06:53:28;;;;;;;32.05;23.55;;;;;;;4.34;55.96;93982.59;5004177;28;20077;-78
2023/04/08 06:55:53;;;;;;;31.20;23.88;;;;;;;4.40;55.84;93962.31;5004081;28;20399;-77
2023/04/08 06:58:19;;;;;;;32.90;24.02;;;;;;;4.70;54.56;93941.84;5006771;28;20776;-76
2023/04/08 07:00:44;;;;;;;70.22;25.50;;;;;;;5.06;53.70;93960.06;5004415;28;20048;-76
2023/04/08 07:03:10;;;;;;;36.47;23.70;;;;;;;5.10;53.63;93961.88;5005731;28;20052;-75
2023/04/08 07:05:36;;;;;;;38.92;23.17;;;;;;;4.83;53.97;93966.81;5004114;28;20029;-77
2023/04/08 07:08:02;;;;;;;33.70;22.90;;;;;;;5.12;53.86;93978.22;5005163;28;20052;-76
2023/04/08 07:10:27;;;;;;;37.08;23.08;;;;;;;5.09;53.65;93944.47;5005483;28;20053;-76
2023/04/08 07:12:53;;;;;;;31.23;21.17;;;;;;;5.33;52.76;93959.59;5004210;28;20483;-77
2023/04/08 07:15:19;;;;;;;33.03;22.85;;;;;;;5.91;52.04;93977.03;5006131;28;20045;-76
2023/04/08 07:17:45;;;;;;;31.50;21.88;;;;;;;5.92;52.06;93975.16;5002562;28;20057;-76
2023/04/08 07:20:11;;;;;;;31.95;22.23;;;;;;;5.90;51.85;93980.72;5003853;28;20041;-75
2023/04/08 07:22:36;;;;;;;33.03;21.55;;;;;;;5.74;52.01;93986.41;5003588;28;20511;-77
2023/04/08 07:25:01;;;;;;;29.35;20.40;;;;;;;5.49;53.32;93979.50;5009525;28;20140;-77
2023/04/08 07:27:27;;;;;;;31.45;20.25;;;;;;;5.29;53.94;93985.72;5017824;28;20181;-76
2023/04/08 07:29:53;;;;;;;27.73;21.38;;;;;;;4.82;55.67;93986.31;5009489;28;20354;-77
2023/04/08 07:32:19;;;;;;;25.67;20.73;;;;;;;5.35;55.04;93997.03;5009248;28;20073;-76
2023/04/08 07:34:44;;;;;;;28.95;21.85;;;;;;;5.09;54.84;93965.56;5008772;28;20038;-76
2023/04/08 07:37:09;;;;;;;30.02;20.50;;;;;;;5.72;53.80;93984.06;5008785;28;20060;-75
2023/04/08 07:39:35;;;;;;;34.85;22.77;;;;;;;5.76;53.79;93977.16;5009120;28;20024;-77
2023/04/08 07:42:00;;;;;;;29.52;20.08;;;;;;;6.07;53.59;93982.91;5010005;28;20050;-76
2023/04/08 07:44:26;;;;;;;26.13;20.65;;;;;;;5.57;53.81;93976.28;5008197;28;20037;-76
2023/04/08 07:46:51;;;;;;;26.67;19.55;;;;;;;5.70;53.37;93980.91;5007601;28;20053;-76
2023/04/08 07:49:17;;;;;;;32.88;20.38;;;;;;;5.38;54.29;93988.59;5008420;28;20095;-76
2023/04/08 07:51:42;;;;;;;27.70;19.77;;;;;;;5.53;53.93;93989.22;5009145;28;20387;-77
2023/04/08 07:54:09;;;;;;;30.70;19.02;;;;;;;6.25;52.35;93976.16;5009102;28;20504;-76
2023/04/08 07:56:34;;;;;;;29.10;18.23;;;;;;;6.69;50.52;94007.59;5009198;28;20038;-75
2023/04/08 07:59:00;;;;;;;28.85;19.38;;;;;;;6.80;51.00;94012.47;5009368;28;20042;-75
2023/04/08 08:01:28;;;;;;;26.40;18.85;;;;;;;7.04;50.80;93998.41;5009038;28;20045;-76
2023/04/08 08:03:54;;;;;;;24.95;17.98;;;;;;;7.43;49.39;94014.78;5007498;28;20053;-77
2023/04/08 08:06:20;;;;;;;29.45;19.40;;;;;;;7.15;50.05;94018.34;5009953;28;20251;-77
2023/04/08 08:08:45;;;;;;;26.00;18.30;;;;;;;6.89;50.97;93990.69;5005969;28;20053;-75
2023/04/08 08:11:11;;;;;;;25.65;19.48;;;;;;;6.52;50.86;94002.78;5008345;28;20029;-75
2023/04/08 08:13:36;;;;;;;28.10;19.52;;;;;;;6.43;52.25;94015.03;5010141;28;20034;-76
2023/04/08 08:16:07;;;;;;;27.75;19.30;;;;;;;6.59;51.72;94015.66;5006131;28;20053;-76
2023/04/08 08:18:33;;;;;;;27.27;19.05;;;;;;;6.09;52.80;94014.31;5010645;28;20580;-76
2023/04/08 08:21:00;;;;;;;27.95;20.63;;;;;;;5.89;53.36;94015.31;5004424;28;20038;-76
2023/04/08 08:23:26;;;;;;;27.65;19.92;;;;;;;5.89;52.79;94008.19;5008485;28;20511;-75
2023/04/08 08:25:58;;;;;;;26.95;19.35;;;;;;;6.16;52.64;94023.53;5006493;28;20045;-76
2023/04/08 08:28:24;;;;;;;31.48;20.13;;;;;;;6.31;52.63;94012.78;5006909;28;20048;-76
2023/04/08 08:30:49;;;;;;;28.23;20.50;;;;;;;6.75;50.93;93983.44;5009376;28;20492;-75
2023/04/08 08:33:15;;;;;;;36.42;20.23;;;;;;;6.58;51.28;93980.50;5007416;28;20029;-76
2023/04/08 08:35:40;;;;;;;26.42;18.45;;;;;;;6.89;50.63;94001.28;5007649;28;22006;-76
2023/04/08 08:38:06;;;;;;;28.88;18.95;;;;;;;6.62;51.52;94007.16;5011073;28;20037;-76
2023/04/08 08:40:32;;;;;;;25.27;19.17;;;;;;;6.52;51.92;94002.78;5009782;28;20492;-76
2023/04/08 08:43:00;;;;;;;28.27;19.35;;;;;;;6.31;52.53;94020.72;5009250;28;20036;-75
2023/04/08 08:45:25;;;;;;;27.08;18.90;;;;;;;6.00;53.18;93995.66;5005804;28;20313;-75
2023/04/08 08:47:50;;;;;;;25.25;18.27;;;;;;;6.04;53.17;94017.81;5007565;28;20518;-77
2023/04/08 08:50:16;;;;;;;23.98;17.83;;;;;;;5.91;52.69;93971.75;5007696;28;20157;-76
2023/04/08 08:52:51;;;;;;;27.52;17.92;;;;;;;6.32;52.14;94003.78;5008612;28;20673;-76
2023/04/08 08:55:19;;;;;;;26.90;19.63;;;;;;;6.81;51.17;94023.81;5005561;28;20129;-76
2023/04/08 08:57:45;;;;;;;25.00;18.70;;;;;;;7.29;51.47;94021.84;5009670;28;20018;-76
2023/04/08 09:00:11;;;;;;;27.25;19.90;;;;;;;7.42;49.45;94012.41;5003590;28;20041;-76
2023/04/08 09:02:36;;;;;;;27.73;18.63;;;;;;;6.72;50.11;94013.09;5009697;28;20029;-76
2023/04/08 09:05:04;;;;;;;25.65;18.02;;;;;;;6.25;51.68;94021.84;5012419;28;20044;-75
2023/04/08 09:07:30;;;;;;;28.05;18.48;;;;;;;6.40;51.86;94007.69;5007840;28;20535;-76
2023/04/08 09:09:58;;;;;;;26.15;19.00;;;;;;;6.27;51.91;94021.53;5008335;28;20065;-76
2023/04/08 09:12:26;;;;;;;24.25;18.17;;;;;;;6.41;52.35;94020.59;5021694;28;20033;-76
2023/04/08 09:15:11;;;;;;;28.38;20.23;;;;;;;6.57;52.56;94012.50;5010628;28;20068;-77
2023/04/08 09:17:38;;;;;;;27.27;17.48;;;;;;;6.19;52.94;94024.81;5007478;28;20455;-75
2023/04/08 09:20:11;;;;;;;29.33;19.25;;;;;;;6.21;53.42;94022.69;5008509;28;20033;-75
2023/04/08 09:22:55;;;;;;;31.92;21.92;;;;;;;6.67;54.09;94015.81;5007709;28;20613;-76
2023/04/08 09:25:31;;;;;;;29.40;19.17;;;;;;;6.39;53.24;94008.75;5006111;28;20570;-76
2023/04/08 09:27:57;;;;;;;26.45;18.67;;;;;;;6.31;53.54;93993.53;5014189;28;20282;-77
2023/04/08 09:30:24;;;;;;;31.80;22.00;;;;;;;6.57;53.71;94008.00;5008807;28;20295;-76
2023/04/08 09:32:52;;;;;;;29.05;21.42;;;;;;;6.82;54.08;94007.69;5006959;28;20034;-76
2023/04/08 09:35:23;;;;;;;32.90;21.13;;;;;;;6.54;54.11;94011.22;5008514;28;20125;-76
2023/04/08 09:37:49;;;;;;;26.98;20.33;;;;;;;6.72;54.41;93994.59;5007916;28;20037;-76
2023/04/08 09:40:15;;;;;;;24.52;17.42;;;;;;;6.78;52.23;93982.91;5006579;28;20500;-76
2023/04/08 09:42:49;;;;;;;21.67;15.85;;;;;;;6.73;52.52;94000.69;5007446;28;20036;-76
2023/04/08 09:45:16;;;;;;;27.50;18.80;;;;;;;6.69;52.85;93981.97;5006586;28;20033;-76
2023/04/08 09:47:49;;;;;;;24.55;16.83;;;;;;;6.77;52.51;93973.38;5015490;28;20286;-75
2023/04/08 09:50:18;;;;;;;19.73;14.02;;;;;;;7.11;51.01;93982.97;5006782;28;20042;-75
2023/04/08 09:52:47;;;;;;;22.55;15.90;;;;;;;7.10;51.03;93991.97;5005625;28;20041;-76
2023/04/08 09:55:13;;;;;;;16.60;12.95;;;;;;;6.96;50.99;93969.94;5004486;28;20462;-76
2023/04/08 09:57:56;;;;;;;18.60;14.15;;;;;;;7.14;50.86;93987.69;5006904;28;20018;-76
2023/04/08 10:00:27;;;;;;;21.33;16.17;;;;;;;7.41;49.94;93969.28;5006636;28;20147;-76
2023/04/08 10:03:26;;;;;;;28.95;19.55;;;;;;;7.19;50.13;93926.78;5007233;28;20402;-76
2023/04/08 10:05:55;;;;;;;28.13;18.20;;;;;;;7.01;51.63;93977.81;5004001;28;20042;-77
2023/04/08 10:08:21;;;;;;;25.40;16.77;;;;;;;6.98;51.78;93989.75;5007005;28;20034;-76
2023/04/08 10:10:46;;;;;;;26.48;17.83;;;;;;;6.57;52.07;93965.72;5005341;28;20524;-76
2023/04/08 10:13:12;;;;;;;22.75;17.15;;;;;;;6.97;51.78;93961.75;5007319;28;20040;-75
2023/04/08 10:15:42;;;;;;;25.55;19.17;;;;;;;7.08;51.87;93976.41;5007688;28;20112;-74
2023/04/08 10:18:10;;;;;;;28.98;18.65;;;;;;;7.34;51.78;93982.06;5006229;28;20037;-76
2023/04/08 10:20:35;;;;;;;27.98;20.23;;;;;;;7.17;52.56;93992.41;5003891;28;20099;-75
2023/04/08 10:23:12;;;;;;;27.40;20.13;;;;;;;6.84;52.20;93983.63;5006979;28;20136;-77
2023/04/08 10:25:38;;;;;;;29.27;19.92;;;;;;;6.95;52.59;93984.25;5006987;28;20065;-76
2023/04/08 10:28:12;;;;;;;26.02;18.60;;;;;;;6.79;52.75;93988.97;5007881;28;20439;-78
2023/04/08 10:30:44;;;;;;;27.02;17.35;;;;;;;7.11;52.02;93985.59;5006992;28;20032;-75
2023/04/08 10:33:12;;;;;;;28.70;19.83;;;;;;;7.04;52.94;93985.19;5006063;28;20053;-77
2023/04/08 10:35:41;;;;;;;32.13;19.17;;;;;;;7.29;52.99;93974.22;5006508;28;20065;-76
2023/04/08 10:38:07;;;;;;;28.83;19.42;;;;;;;7.50;53.02;93970.19;5007304;28;20087;-76
2023/04/08 10:40:37;;;;;;;26.83;18.88;;;;;;;7.22;53.82;93977.25;5004893;28;20038;-76
2023/04/08 10:43:04;;;;;;;31.63;22.38;;;;;;;7.01;55.71;93956.66;5006933;28;20029;-76
2023/04/08 10:45:29;;;;;;;31.88;22.00;;;;;;;6.55;56.24;93906.31;5013642;28;20060;-75
2023/04/08 10:47:55;;;;;;;32.33;20.27;;;;;;;7.11;55.74;93962.59;5006544;28;20150;-76
2023/04/08 10:50:22;;;;;;;28.70;19.23;;;;;;;7.37;55.23;93949.78;5004285;28;20431;-76
2023/04/08 10:52:52;;;;;;;33.28;21.50;;;;;;;7.21;54.82;93956.38;5006678;28;20044;-76
2023/04/08 10:55:25;;;;;;;26.92;17.98;;;;;;;7.19;54.41;93959.28;5005689;28;20045;-75
2023/04/08 10:57:51;;;;;;;25.52;18.10;;;;;;;7.02;54.13;93958.25;5005655;28;20920;-76
2023/04/08 11:00:33;;;;;;;27.42;19.25;;;;;;;7.44;53.23;93949.38;5007530;28;20037;-76
2023/04/08 11:03:09;;;;;;;22.80;17.95;;;;;;;7.47;52.35;93941.66;5000411;28;20038;-77
2023/04/08 11:05:36;;;;;;;24.00;16.17;;;;;;;7.65;51.78;93951.41;4987375;28;20415;-76
2023/04/08 11:08:01;;;;;;;24.40;17.88;;;;;;;7.63;51.03;93948.25;4985556;28;20124;-77
2023/04/08 11:10:28;;;;;;;41.08;23.65;;;;;;;7.31;51.53;93924.47;4985756;28;20041;-76
2023/04/08 11:12:54;;;;;;;31.77;23.33;;;;;;;7.08;52.61;93910.28;4985585;28;20935;-76
2023/04/08 11:15:23;;;;;;;24.38;17.15;;;;;;;7.41;52.75;93940.16;4986774;28;20111;-76
2023/04/08 11:17:49;;;;;;;30.13;20.17;;;;;;;7.03;52.37;93917.50;4984445;28;20034;-76
2023/04/08 11:20:15;;;;;;;25.50;16.95;;;;;;;7.17;52.55;93936.84;4989368;28;20615;-76
2023/04/08 11:22:41;;;;;;;24.08;16.70;;;;;;;7.36;52.60;93915.66;4986254;28;20106;-76